createdAt,value
2022-10-18T00:00:17.247Z,36.45
2022-10-18T00:02:52.908Z,31.92
2022-10-18T00:05:27.956Z,32.55
2022-10-18T00:08:08.382Z,40.63
2022-10-18T00:10:46.311Z,35.43
2022-10-18T00:13:24.362Z,35.20
2022-10-18T00:16:03.450Z,34.47
2022-10-18T00:18:37.663Z,33.00
2022-10-18T00:21:14.690Z,40.58
2022-10-18T00:23:57.237Z,38.08
2022-10-18T00:26:32.797Z,40.58
2022-10-18T00:29:18.790Z,39.58
2022-10-18T00:31:55.060Z,39.90
2022-10-18T00:34:36.123Z,40.85
2022-10-18T00:37:21.674Z,44.80
2022-10-18T00:40:04.105Z,43.08
2022-10-18T00:42:41.920Z,41.92
2022-10-18T00:45:29.927Z,44.55
2022-10-18T00:48:07.662Z,43.70
2022-10-18T00:50:50.680Z,42.75
2022-10-18T00:53:30.036Z,39.03
2022-10-18T00:56:15.304Z,42.13
2022-10-18T00:58:59.470Z,42.55
2022-10-18T01:01:42.961Z,42.20
2022-10-18T01:04:22.165Z,41.72
2022-10-18T01:07:09.225Z,39.97
2022-10-18T01:09:49.575Z,45.45
2022-10-18T01:12:55.995Z,38.35
2022-10-18T01:16:13.571Z,41.22
2022-10-18T01:18:51.518Z,44.03
2022-10-18T01:21:43.867Z,46.85
2022-10-18T01:24:48.888Z,47.05
2022-10-18T01:27:57.872Z,44.47
2022-10-18T01:30:52.289Z,48.20
2022-10-18T01:34:08.540Z,49.88
2022-10-18T01:36:52.489Z,50.03
2022-10-18T01:42:13.138Z,45.35
2022-10-18T01:44:53.549Z,53.28
2022-10-18T01:47:38.476Z,53.20
2022-10-18T01:50:13.969Z,53.30
2022-10-18T01:53:00.459Z,57.78
2022-10-18T01:55:52.730Z,59.60
2022-10-18T01:58:41.003Z,56.42
2022-10-18T02:01:31.364Z,55.78
2022-10-18T02:04:28.133Z,53.22
2022-10-18T02:07:25.827Z,50.75
2022-10-18T02:10:29.205Z,54.42
2022-10-18T02:13:10.218Z,51.05
2022-10-18T02:15:51.021Z,53.15
2022-10-18T02:18:51.983Z,51.00
2022-10-18T02:21:40.965Z,43.22
2022-10-18T02:24:21.128Z,48.67
2022-10-18T02:26:58.742Z,45.35
2022-10-18T02:29:42.028Z,42.55
2022-10-18T02:32:43.171Z,45.15
2022-10-18T02:35:33.216Z,41.05
2022-10-18T02:38:18.752Z,43.28
2022-10-18T02:41:02.836Z,49.58
2022-10-18T02:43:46.184Z,50.53
2022-10-18T02:46:28.004Z,45.10
2022-10-18T02:49:17.942Z,45.25
2022-10-18T02:51:56.503Z,46.20
2022-10-18T02:54:41.811Z,44.20
2022-10-18T02:57:33.836Z,44.45
2022-10-18T03:00:15.821Z,53.22
2022-10-18T03:03:13.144Z,52.75
2022-10-18T03:05:54.445Z,49.50
2022-10-18T03:08:32.478Z,49.25
2022-10-18T03:11:07.452Z,49.67
2022-10-18T03:13:45.333Z,49.90
2022-10-18T03:16:31.332Z,51.05
2022-10-18T03:19:15.820Z,49.78
2022-10-18T03:21:54.403Z,53.97
2022-10-18T03:24:37.607Z,49.00
2022-10-18T03:27:25.727Z,53.40
2022-10-18T03:30:05.462Z,54.08
2022-10-18T03:32:41.050Z,54.33
2022-10-18T03:35:24.175Z,53.17
2022-10-18T03:38:13.084Z,53.70
2022-10-18T03:40:52.071Z,51.35
2022-10-18T03:43:27.798Z,55.70
2022-10-18T03:46:00.615Z,50.72
2022-10-18T03:48:52.658Z,51.65
2022-10-18T03:51:36.148Z,49.03
2022-10-18T03:54:14.165Z,52.55
2022-10-18T03:56:50.570Z,54.47
2022-10-18T03:59:31.472Z,56.63
2022-10-18T04:02:15.342Z,60.80
2022-10-18T04:04:50.648Z,61.45
2022-10-18T04:07:38.385Z,58.53
2022-10-18T04:10:18.821Z,59.20
2022-10-18T04:12:59.827Z,56.65
2022-10-18T04:15:35.601Z,60.50
2022-10-18T04:18:10.237Z,63.03
2022-10-18T04:20:57.076Z,59.83
2022-10-18T04:23:36.422Z,59.78
2022-10-18T04:26:22.876Z,57.28
2022-10-18T04:29:02.953Z,61.40
2022-10-18T04:31:30.064Z,59.90
2022-10-18T04:34:02.176Z,61.58
2022-10-18T04:36:40.154Z,66.32
2022-10-18T04:39:27.008Z,68.95
2022-10-18T04:42:13.711Z,66.35
2022-10-18T04:44:48.519Z,64.43
2022-10-18T04:47:26.374Z,70.68
2022-10-18T04:50:05.294Z,62.70
2022-10-18T04:52:58.499Z,65.85
2022-10-18T04:55:34.277Z,67.70
2022-10-18T04:58:13.329Z,67.63
2022-10-18T05:00:50.376Z,67.43
2022-10-18T05:03:39.123Z,66.03
2022-10-18T05:06:25.607Z,67.70
2022-10-18T05:12:10.436Z,58.50
2022-10-18T05:14:46.325Z,61.40
2022-10-18T05:17:22.404Z,60.15
2022-10-18T05:19:58.239Z,65.07
2022-10-18T05:22:46.285Z,67.22
2022-10-18T05:25:18.608Z,65.63
2022-10-18T05:28:10.522Z,68.25
2022-10-18T05:30:55.161Z,77.40
2022-10-18T05:33:30.755Z,61.35
2022-10-18T05:36:10.541Z,67.40
2022-10-18T05:38:48.920Z,68.00
2022-10-18T05:41:31.858Z,71.55
2022-10-18T05:44:19.131Z,63.57
2022-10-18T05:46:57.353Z,63.10
2022-10-18T05:49:47.301Z,67.43
2022-10-18T05:52:40.252Z,69.28
2022-10-18T05:55:18.171Z,76.72
2022-10-18T05:58:00.804Z,80.20
2022-10-18T06:00:41.539Z,74.88
2022-10-18T06:03:20.336Z,75.60
2022-10-18T06:06:10.913Z,82.97
2022-10-18T06:08:55.425Z,81.78
2022-10-18T06:11:30.897Z,83.13
2022-10-18T06:14:05.646Z,86.95
2022-10-18T06:16:46.616Z,84.13
2022-10-18T06:19:29.895Z,81.65
2022-10-18T06:22:20.694Z,91.82
2022-10-18T06:24:55.061Z,87.72
2022-10-18T06:27:40.973Z,104.93
2022-10-18T06:30:13.005Z,114.93
2022-10-18T06:32:46.405Z,126.50
2022-10-18T06:35:21.540Z,127.40
2022-10-18T06:38:15.858Z,119.72
2022-10-18T06:40:51.171Z,111.25
2022-10-18T06:43:44.815Z,102.13
2022-10-18T06:46:29.154Z,86.32
2022-10-18T06:49:02.376Z,83.90
2022-10-18T06:51:45.626Z,81.97
2022-10-18T06:54:33.379Z,71.90
2022-10-18T06:57:10.731Z,63.30
2022-10-18T06:59:58.251Z,55.00
2022-10-18T07:02:41.248Z,51.70
2022-10-18T07:05:22.953Z,47.40
2022-10-18T07:07:55.674Z,50.17
2022-10-18T07:10:39.084Z,45.20
2022-10-18T07:13:31.588Z,44.45
2022-10-18T07:16:26.773Z,44.20
2022-10-18T07:19:04.830Z,48.38
2022-10-18T07:21:43.236Z,43.63
2022-10-18T07:24:21.676Z,46.08
2022-10-18T07:27:10.318Z,43.42
2022-10-18T07:29:48.774Z,40.03
2022-10-18T07:32:33.774Z,43.65
2022-10-18T07:35:20.853Z,36.08
2022-10-18T07:38:07.679Z,37.47
2022-10-18T07:40:51.308Z,34.10
2022-10-18T07:43:34.373Z,35.45
2022-10-18T07:46:17.440Z,34.97
2022-10-18T07:49:05.703Z,34.23
2022-10-18T07:51:42.846Z,31.10
2022-10-18T07:54:22.399Z,31.15
2022-10-18T07:57:02.686Z,26.42
2022-10-18T07:59:46.347Z,24.73
2022-10-18T08:02:21.390Z,22.63
2022-10-18T08:05:05.305Z,26.35
2022-10-18T08:07:40.269Z,21.65
2022-10-18T08:10:31.254Z,23.55
2022-10-18T08:13:08.924Z,22.90
2022-10-18T08:15:48.484Z,24.25
2022-10-18T08:18:26.860Z,22.73
2022-10-18T08:21:19.777Z,21.58
2022-10-18T08:23:55.110Z,17.10
2022-10-18T08:26:41.825Z,22.17
2022-10-18T08:29:29.146Z,20.25
2022-10-18T08:32:05.733Z,19.08
2022-10-18T08:34:49.700Z,20.55
2022-10-18T08:40:01.902Z,17.92
2022-10-18T08:42:58.938Z,20.42
2022-10-18T08:45:42.251Z,16.73
2022-10-18T08:50:57.702Z,15.88
2022-10-18T08:53:40.091Z,22.23
2022-10-18T08:56:21.563Z,18.80
2022-10-18T08:59:06.141Z,18.35
2022-10-18T09:01:58.979Z,16.88
2022-10-18T09:04:54.221Z,16.20
2022-10-18T09:07:52.603Z,16.35
2022-10-18T09:10:45.720Z,19.73
2022-10-18T09:13:47.761Z,12.75
2022-10-18T09:16:47.602Z,26.67
2022-10-18T09:19:35.316Z,16.27
2022-10-18T09:22:42.167Z,17.35
2022-10-18T09:25:25.515Z,20.60
2022-10-18T09:28:42.003Z,15.38
2022-10-18T09:31:31.310Z,12.65
2022-10-18T09:34:26.738Z,17.48
2022-10-18T09:37:15.346Z,13.75
2022-10-18T09:40:05.993Z,16.50
2022-10-18T09:42:45.305Z,10.60
2022-10-18T09:45:32.024Z,15.15
2022-10-18T09:48:14.123Z,23.50
2022-10-18T09:51:11.188Z,11.52
2022-10-18T09:54:38.440Z,15.73
2022-10-18T09:57:28.858Z,11.52
2022-10-18T10:00:04.296Z,11.80
2022-10-18T10:02:39.621Z,9.48
2022-10-18T10:05:23.602Z,8.95
2022-10-18T10:08:05.501Z,18.92
2022-10-18T10:10:56.564Z,12.07
2022-10-18T10:13:33.300Z,11.80
2022-10-18T10:16:13.934Z,14.23
2022-10-18T10:19:04.617Z,11.52
2022-10-18T10:21:50.111Z,10.30
2022-10-18T10:24:30.280Z,10.55
2022-10-18T10:27:32.385Z,9.07
2022-10-18T10:30:26.484Z,7.28
2022-10-18T10:33:03.642Z,13.07
2022-10-18T10:35:53.403Z,13.48
2022-10-18T10:38:34.671Z,11.23
2022-10-18T10:43:54.723Z,11.10
2022-10-18T10:46:39.445Z,7.80
2022-10-18T10:49:39.590Z,9.57
2022-10-18T10:52:36.850Z,7.63
2022-10-18T10:55:38.359Z,7.15
2022-10-18T10:58:26.641Z,10.63
2022-10-18T11:01:21.520Z,7.07
2022-10-18T11:04:28.243Z,10.77
2022-10-18T11:07:39.508Z,8.20
2022-10-18T11:10:14.249Z,10.75
2022-10-18T11:13:04.415Z,6.93
2022-10-18T11:15:53.101Z,5.63
2022-10-18T11:18:34.704Z,9.45
2022-10-18T11:21:11.913Z,11.02
2022-10-18T11:23:54.196Z,11.73
2022-10-18T11:27:08.611Z,7.35
2022-10-18T11:29:57.126Z,9.30
2022-10-18T11:32:54.498Z,9.20
2022-10-18T11:36:03.522Z,6.20
2022-10-18T11:38:57.277Z,7.03
2022-10-18T11:42:13.748Z,8.68
2022-10-18T11:44:51.866Z,10.13
2022-10-18T11:47:56.572Z,10.50
2022-10-18T11:50:50.110Z,10.93
2022-10-18T11:53:37.659Z,10.48
2022-10-18T11:56:34.377Z,9.45
2022-10-18T11:59:24.258Z,7.78
2022-10-18T12:02:39.673Z,6.57
2022-10-18T12:05:29.748Z,18.17
2022-10-18T12:08:11.358Z,7.90
2022-10-18T12:11:04.981Z,9.50
2022-10-18T12:13:59.298Z,7.88
2022-10-18T12:17:20.214Z,7.78
2022-10-18T12:19:42.865Z,9.25
2022-10-18T12:22:33.258Z,10.25
2022-10-18T12:25:19.617Z,7.50
2022-10-18T12:28:06.310Z,15.10
2022-10-18T12:30:57.660Z,8.43
2022-10-18T12:33:44.703Z,8.38
2022-10-18T12:36:44.452Z,9.15
2022-10-18T12:40:08.576Z,14.30
2022-10-18T12:42:50.144Z,7.30
2022-10-18T12:45:47.498Z,10.80
2022-10-18T12:48:42.414Z,12.18
2022-10-18T12:51:28.620Z,7.18
2022-10-18T12:54:22.638Z,8.88
2022-10-18T12:56:57.656Z,15.27
2022-10-18T12:59:44.508Z,14.13
2022-10-18T13:05:02.557Z,10.00
2022-10-18T13:07:41.053Z,6.63
2022-10-18T13:10:16.826Z,10.40
2022-10-18T13:13:29.575Z,10.18
2022-10-18T13:16:30.050Z,6.07
2022-10-18T13:19:25.302Z,9.40
2022-10-18T13:22:35.856Z,8.25
2022-10-18T13:25:21.826Z,7.93
2022-10-18T13:28:02.781Z,15.32
2022-10-18T13:31:13.955Z,18.00
2022-10-18T13:33:52.080Z,10.85
2022-10-18T13:36:29.948Z,10.85
2022-10-18T13:39:07.685Z,14.40
2022-10-18T13:41:55.123Z,10.00
2022-10-18T13:44:55.089Z,13.95
2022-10-18T13:47:42.767Z,7.88
2022-10-18T13:50:28.541Z,8.40
2022-10-18T13:53:27.228Z,6.97
2022-10-18T13:56:23.651Z,7.60
2022-10-18T13:59:20.380Z,11.32
2022-10-18T14:02:49.421Z,8.13
2022-10-18T14:05:35.981Z,9.90
2022-10-18T14:11:25.960Z,10.05
2022-10-18T14:14:09.082Z,10.07
2022-10-18T14:17:25.406Z,7.97
2022-10-18T14:20:04.961Z,10.57
2022-10-18T14:22:54.031Z,7.70
2022-10-18T14:25:35.898Z,10.07
2022-10-18T14:28:27.425Z,7.90
2022-10-18T14:31:11.913Z,8.13
2022-10-18T14:33:59.738Z,10.32
2022-10-18T14:36:42.968Z,11.93
2022-10-18T14:39:38.386Z,12.52
2022-10-18T14:42:23.466Z,10.40
2022-10-18T14:45:00.643Z,10.20
2022-10-18T14:47:48.330Z,9.52
2022-10-18T14:50:30.902Z,8.98
2022-10-18T14:53:14.021Z,13.38
2022-10-18T14:56:03.762Z,10.80
2022-10-18T14:58:48.398Z,10.07
2022-10-18T15:01:40.407Z,14.93
2022-10-18T15:04:26.262Z,7.45
2022-10-18T15:07:15.937Z,10.57
2022-10-18T15:09:58.961Z,14.77
2022-10-18T15:12:41.220Z,12.98
2022-10-18T15:15:30.485Z,9.43
2022-10-18T15:18:08.369Z,12.60
2022-10-18T15:20:51.619Z,14.35
2022-10-18T15:23:50.312Z,13.48
2022-10-18T15:26:30.438Z,13.43
2022-10-18T15:29:04.574Z,10.98
2022-10-18T15:31:46.072Z,9.90
2022-10-18T15:34:26.979Z,17.83
2022-10-18T15:37:03.173Z,18.98
2022-10-18T15:39:41.417Z,13.82
2022-10-18T15:42:45.791Z,30.08
2022-10-18T15:48:48.288Z,33.97
2022-10-18T15:52:11.874Z,33.78
2022-10-18T15:54:44.766Z,40.17
2022-10-18T15:57:24.814Z,32.00
2022-10-18T16:00:07.635Z,17.00
2022-10-18T16:02:50.860Z,22.17
2022-10-18T16:05:25.741Z,21.92
2022-10-18T16:08:08.124Z,15.82
2022-10-18T16:10:46.620Z,17.48
2022-10-18T16:13:21.053Z,22.45
2022-10-18T16:16:01.726Z,38.45
2022-10-18T16:18:38.772Z,17.30
2022-10-18T16:21:32.270Z,16.80
2022-10-18T16:24:18.378Z,19.77
2022-10-18T16:27:04.363Z,15.32
2022-10-18T16:29:47.640Z,12.85
2022-10-18T16:32:22.775Z,14.90
2022-10-18T16:34:54.999Z,34.33
2022-10-18T16:37:40.057Z,28.73
2022-10-18T16:40:28.881Z,23.50
2022-10-18T16:43:05.383Z,26.05
2022-10-18T16:45:42.219Z,20.05
2022-10-18T16:48:24.703Z,24.83
2022-10-18T16:51:08.377Z,45.53
2022-10-18T16:53:40.205Z,22.55
2022-10-18T16:56:34.335Z,20.40
2022-10-18T16:59:10.733Z,22.85
2022-10-18T17:01:56.735Z,27.50
2022-10-18T17:04:31.861Z,42.10
2022-10-18T17:07:03.610Z,42.00
2022-10-18T17:09:41.207Z,44.05
2022-10-18T17:12:15.620Z,25.90
2022-10-18T17:14:51.025Z,25.65
2022-10-18T17:17:37.691Z,21.00
2022-10-18T17:20:35.343Z,18.92
2022-10-18T17:23:17.572Z,27.35
2022-10-18T17:26:08.523Z,20.08
2022-10-18T17:29:10.826Z,19.67
2022-10-18T17:31:46.347Z,19.85
2022-10-18T17:34:21.315Z,40.20
2022-10-18T17:36:59.831Z,38.25
2022-10-18T17:39:46.779Z,25.55
2022-10-18T17:42:22.018Z,28.02
2022-10-18T17:44:57.076Z,34.63
2022-10-18T17:47:38.172Z,29.83
2022-10-18T17:50:15.558Z,24.35
2022-10-18T17:52:59.251Z,27.90
2022-10-18T17:55:39.757Z,30.98
2022-10-18T17:58:22.478Z,26.20
2022-10-18T18:00:57.683Z,21.20
2022-10-18T18:03:29.912Z,35.03
2022-10-18T18:06:16.475Z,25.40
2022-10-18T18:08:58.075Z,39.80
2022-10-18T18:11:37.184Z,49.03
2022-10-18T18:14:24.410Z,36.90
2022-10-18T18:16:56.487Z,34.53
2022-10-18T18:19:33.884Z,35.67
2022-10-18T18:22:09.385Z,31.38
2022-10-18T18:24:44.250Z,37.20
2022-10-18T18:27:13.949Z,24.63
2022-10-18T18:30:03.247Z,26.67
2022-10-18T18:32:51.204Z,39.85
2022-10-18T18:35:40.961Z,26.08
2022-10-18T18:38:14.699Z,27.90
2022-10-18T18:40:50.413Z,23.10
2022-10-18T18:43:23.064Z,30.77
2022-10-18T18:46:07.091Z,22.30
2022-10-18T18:48:42.362Z,21.85
2022-10-18T18:51:25.075Z,35.38
2022-10-18T18:54:06.045Z,23.45
2022-10-18T18:59:26.265Z,24.20
2022-10-18T19:02:03.740Z,22.70
2022-10-18T19:04:49.746Z,23.10
2022-10-18T19:07:22.528Z,25.23
2022-10-18T19:09:57.528Z,23.92
2022-10-18T19:12:40.332Z,23.38
2022-10-18T19:15:15.401Z,23.52
2022-10-18T19:18:08.284Z,23.83
2022-10-18T19:20:40.324Z,29.33
2022-10-18T19:23:13.128Z,33.58
2022-10-18T19:26:10.158Z,34.55
2022-10-18T19:28:51.306Z,35.03
2022-10-18T19:31:23.857Z,32.63
2022-10-18T19:34:04.097Z,31.58
2022-10-18T19:36:47.522Z,34.95
2022-10-18T19:39:28.429Z,42.08
2022-10-18T19:42:24.236Z,46.03
2022-10-18T19:44:58.827Z,49.53
2022-10-18T19:47:33.798Z,53.55
2022-10-18T19:50:12.826Z,56.03
2022-10-18T19:52:48.190Z,63.05
2022-10-18T19:55:31.034Z,74.03
2022-10-18T19:58:05.800Z,69.13
2022-10-18T20:00:57.428Z,64.78
2022-10-18T20:03:37.967Z,81.93
2022-10-18T20:06:16.778Z,88.60
2022-10-18T20:09:01.626Z,72.93
2022-10-18T20:11:40.480Z,78.70
2022-10-18T20:14:16.308Z,82.15
2022-10-18T20:16:54.410Z,66.50
2022-10-18T20:19:24.609Z,68.40
2022-10-18T20:22:07.531Z,62.23
2022-10-18T20:24:47.444Z,65.10
2022-10-18T20:27:22.965Z,72.85
2022-10-18T20:30:02.064Z,90.10
2022-10-18T20:32:36.925Z,120.57
2022-10-18T20:35:25.517Z,119.38
2022-10-18T20:38:06.322Z,145.02
2022-10-18T20:40:41.490Z,142.60
2022-10-18T20:43:19.629Z,130.02
2022-10-18T20:46:04.291Z,132.52
2022-10-18T20:48:39.700Z,118.60
2022-10-18T20:51:19.158Z,105.45
2022-10-18T20:54:06.374Z,113.28
2022-10-18T20:56:45.680Z,106.90
2022-10-18T20:59:23.537Z,106.85
2022-10-18T21:01:58.507Z,96.32
2022-10-18T21:04:33.775Z,104.53
2022-10-18T21:07:17.857Z,93.68
2022-10-18T21:09:56.372Z,80.47
2022-10-18T21:12:37.722Z,80.63
2022-10-18T21:15:12.799Z,73.88
2022-10-18T21:17:59.701Z,63.78
2022-10-18T21:20:43.465Z,68.03
2022-10-18T21:23:29.802Z,72.95
2022-10-18T21:26:08.121Z,65.70
2022-10-18T21:28:54.496Z,63.95
2022-10-18T21:31:27.091Z,62.95
2022-10-18T21:34:13.046Z,66.78
2022-10-18T21:36:52.319Z,66.03
2022-10-18T21:39:32.983Z,67.68
2022-10-18T21:42:05.346Z,69.68
2022-10-18T21:44:40.499Z,68.18
2022-10-18T21:47:18.556Z,65.15
2022-10-18T21:50:04.593Z,64.05
2022-10-18T21:52:42.984Z,64.90
2022-10-18T21:55:29.021Z,64.15
2022-10-18T21:58:06.477Z,60.58
2022-10-18T22:00:40.884Z,67.88
2022-10-18T22:03:23.299Z,63.85
2022-10-18T22:06:13.720Z,55.72
2022-10-18T22:08:57.674Z,54.65
2022-10-18T22:14:23.057Z,63.72
2022-10-18T22:17:05.306Z,64.13
2022-10-18T22:19:39.795Z,64.95
2022-10-18T22:22:25.826Z,58.70
2022-10-18T22:25:01.103Z,56.78
2022-10-18T22:27:31.441Z,63.25
2022-10-18T22:30:07.660Z,68.05
2022-10-18T22:32:42.839Z,59.97
2022-10-18T22:35:17.864Z,58.72
2022-10-18T22:37:58.538Z,58.30
2022-10-18T22:40:42.213Z,56.95
2022-10-18T22:43:18.334Z,65.22
2022-10-18T22:45:52.889Z,66.70
2022-10-18T22:48:33.272Z,64.40
2022-10-18T22:51:12.236Z,57.05
2022-10-18T22:53:52.044Z,56.95
2022-10-18T22:56:32.397Z,69.55
2022-10-18T22:59:16.338Z,55.85
2022-10-18T23:01:53.081Z,56.75
2022-10-18T23:04:39.974Z,59.15
2022-10-18T23:07:16.344Z,57.03
2022-10-18T23:09:49.159Z,50.13
2022-10-18T23:12:31.254Z,55.50
2022-10-18T23:15:12.340Z,50.83
2022-10-18T23:18:02.181Z,49.45
2022-10-18T23:20:47.602Z,47.40
2022-10-18T23:23:23.407Z,52.85
2022-10-18T23:26:10.124Z,55.70
2022-10-18T23:28:46.554Z,46.67
2022-10-18T23:31:34.866Z,54.58
2022-10-18T23:34:13.606Z,50.75
2022-10-18T23:36:51.728Z,47.72
2022-10-18T23:39:34.096Z,53.80
2022-10-18T23:42:09.111Z,48.70
2022-10-18T23:44:53.262Z,46.40
2022-10-18T23:47:31.250Z,55.63
2022-10-18T23:50:07.183Z,43.28
2022-10-18T23:52:47.608Z,48.03
2022-10-18T23:55:22.603Z,50.25
2022-10-18T23:58:03.044Z,48.63
